sensor_id;sensor_type;location;lat;lon;timestamp;P1;durP1;ratioP1;P2;durP2;ratioP2
1140;SDS011;559;48.628;8.924;2024-02-15T00:01:33;74.43;;;70.43;;
1140;SDS011;559;48.628;8.924;2024-02-15T00:04:00;76.70;;;72.55;;
1140;SDS011;559;48.628;8.924;2024-02-15T00:06:26;75.72;;;71.72;;
1140;SDS011;559;48.628;8.924;2024-02-15T00:08:53;75.20;;;71.22;;
1140;SDS011;559;48.628;8.924;2024-02-15T00:11:19;74.30;;;70.40;;
1140;SDS011;559;48.628;8.924;2024-02-15T00:13:48;75.80;;;71.60;;
1140;SDS011;559;48.628;8.924;2024-02-15T00:16:14;73.10;;;69.10;;
1140;SDS011;559;48.628;8.924;2024-02-15T00:18:41;75.07;;;70.97;;
1140;SDS011;559;48.628;8.924;2024-02-15T00:21:07;74.35;;;70.32;;
1140;SDS011;559;48.628;8.924;2024-02-15T00:23:34;71.05;;;67.18;;
1140;SDS011;559;48.628;8.924;2024-02-15T00:26:00;72.65;;;68.75;;
1140;SDS011;559;48.628;8.924;2024-02-15T00:28:27;72.70;;;68.68;;
1140;SDS011;559;48.628;8.924;2024-02-15T00:30:55;71.88;;;68.07;;
1140;SDS011;559;48.628;8.924;2024-02-15T00:33:21;75.57;;;71.15;;
1140;SDS011;559;48.628;8.924;2024-02-15T00:35:47;74.57;;;70.65;;
1140;SDS011;559;48.628;8.924;2024-02-15T00:38:17;70.95;;;67.15;;
1140;SDS011;559;48.628;8.924;2024-02-15T00:40:44;74.00;;;70.00;;
1140;SDS011;559;48.628;8.924;2024-02-15T00:43:10;73.93;;;70.07;;
1140;SDS011;559;48.628;8.924;2024-02-15T00:45:37;73.20;;;69.20;;
1140;SDS011;559;48.628;8.924;2024-02-15T00:48:05;72.78;;;68.97;;
1140;SDS011;559;48.628;8.924;2024-02-15T00:50:32;76.05;;;72.05;;
1140;SDS011;559;48.628;8.924;2024-02-15T00:52:58;74.40;;;70.53;;
1140;SDS011;559;48.628;8.924;2024-02-15T00:55:25;76.88;;;72.57;;
1140;SDS011;559;48.628;8.924;2024-02-15T00:57:51;77.22;;;73.13;;
1140;SDS011;559;48.628;8.924;2024-02-15T01:00:18;77.53;;;73.53;;
1140;SDS011;559;48.628;8.924;2024-02-15T01:02:45;79.50;;;75.40;;
1140;SDS011;559;48.628;8.924;2024-02-15T01:05:13;80.13;;;75.53;;
1140;SDS011;559;48.628;8.924;2024-02-15T01:07:40;77.60;;;73.60;;
1140;SDS011;559;48.628;8.924;2024-02-15T01:10:07;76.53;;;72.43;;
1140;SDS011;559;48.628;8.924;2024-02-15T01:12:34;76.82;;;72.80;;
1140;SDS011;559;48.628;8.924;2024-02-15T01:15:01;75.80;;;71.78;;
1140;SDS011;559;48.628;8.924;2024-02-15T01:17:27;78.00;;;73.90;;
1140;SDS011;559;48.628;8.924;2024-02-15T01:19:54;80.20;;;75.95;;
1140;SDS011;559;48.628;8.924;2024-02-15T01:22:22;82.00;;;77.68;;
1140;SDS011;559;48.628;8.924;2024-02-15T01:24:50;82.18;;;77.97;;
1140;SDS011;559;48.628;8.924;2024-02-15T01:27:16;83.47;;;78.93;;
1140;SDS011;559;48.628;8.924;2024-02-15T01:29:43;81.93;;;77.63;;
1140;SDS011;559;48.628;8.924;2024-02-15T01:32:09;83.00;;;78.72;;
1140;SDS011;559;48.628;8.924;2024-02-15T01:34:36;87.28;;;82.78;;
1140;SDS011;559;48.628;8.924;2024-02-15T01:37:02;86.55;;;82.15;;
1140;SDS011;559;48.628;8.924;2024-02-15T01:39:30;88.22;;;83.63;;
1140;SDS011;559;48.628;8.924;2024-02-15T01:41:57;86.68;;;82.18;;
1140;SDS011;559;48.628;8.924;2024-02-15T01:44:24;91.72;;;87.00;;
1140;SDS011;559;48.628;8.924;2024-02-15T01:46:51;88.93;;;84.18;;
1140;SDS011;559;48.628;8.924;2024-02-15T01:49:19;87.75;;;83.07;;
1140;SDS011;559;48.628;8.924;2024-02-15T01:51:47;92.10;;;87.40;;
1140;SDS011;559;48.628;8.924;2024-02-15T01:54:14;90.93;;;86.22;;
1140;SDS011;559;48.628;8.924;2024-02-15T01:56:43;88.38;;;83.63;;
1140;SDS011;559;48.628;8.924;2024-02-15T01:59:10;89.90;;;85.40;;
1140;SDS011;559;48.628;8.924;2024-02-15T02:01:37;90.00;;;85.60;;
1140;SDS011;559;48.628;8.924;2024-02-15T02:04:03;90.35;;;85.82;;
1140;SDS011;559;48.628;8.924;2024-02-15T02:06:30;93.07;;;88.47;;
1140;SDS011;559;48.628;8.924;2024-02-15T02:08:57;93.45;;;88.80;;
1140;SDS011;559;48.628;8.924;2024-02-15T02:11:24;98.03;;;93.28;;
1140;SDS011;559;48.628;8.924;2024-02-15T02:13:52;100.30;;;95.43;;
1140;SDS011;559;48.628;8.924;2024-02-15T02:16:25;102.28;;;97.43;;
1140;SDS011;559;48.628;8.924;2024-02-15T02:18:52;101.97;;;96.95;;
1140;SDS011;559;48.628;8.924;2024-02-15T02:21:19;105.20;;;100.00;;
1140;SDS011;559;48.628;8.924;2024-02-15T02:23:45;105.07;;;99.97;;
1140;SDS011;559;48.628;8.924;2024-02-15T02:26:18;110.97;;;105.88;;
1140;SDS011;559;48.628;8.924;2024-02-15T02:28:46;111.10;;;106.00;;
1140;SDS011;559;48.628;8.924;2024-02-15T02:31:12;109.90;;;104.68;;
1140;SDS011;559;48.628;8.924;2024-02-15T02:33:39;111.28;;;105.88;;
1140;SDS011;559;48.628;8.924;2024-02-15T02:36:06;117.43;;;111.90;;
1140;SDS011;559;48.628;8.924;2024-02-15T02:38:35;113.50;;;108.00;;
1140;SDS011;559;48.628;8.924;2024-02-15T02:41:03;111.10;;;105.88;;
1140;SDS011;559;48.628;8.924;2024-02-15T02:43:30;113.28;;;107.90;;
1140;SDS011;559;48.628;8.924;2024-02-15T02:45:57;128.50;;;122.60;;
1140;SDS011;559;48.628;8.924;2024-02-15T02:48:23;134.50;;;128.05;;
1140;SDS011;559;48.628;8.924;2024-02-15T02:50:50;145.00;;;138.20;;
1140;SDS011;559;48.628;8.924;2024-02-15T02:53:17;140.50;;;133.80;;
1140;SDS011;559;48.628;8.924;2024-02-15T02:55:43;140.57;;;134.00;;
1140;SDS011;559;48.628;8.924;2024-02-15T02:58:10;141.18;;;134.38;;
1140;SDS011;559;48.628;8.924;2024-02-15T03:00:39;146.88;;;139.85;;
1140;SDS011;559;48.628;8.924;2024-02-15T03:03:05;143.68;;;136.43;;
1140;SDS011;559;48.628;8.924;2024-02-15T03:05:32;138.63;;;131.60;;
1140;SDS011;559;48.628;8.924;2024-02-15T03:07:58;139.75;;;132.70;;
1140;SDS011;559;48.628;8.924;2024-02-15T03:10:25;133.90;;;127.00;;
1140;SDS011;559;48.628;8.924;2024-02-15T03:12:52;130.75;;;123.85;;
1140;SDS011;559;48.628;8.924;2024-02-15T03:15:18;133.70;;;126.50;;
1140;SDS011;559;48.628;8.924;2024-02-15T03:17:47;131.93;;;125.07;;
1140;SDS011;559;48.628;8.924;2024-02-15T03:20:14;127.15;;;120.47;;
1140;SDS011;559;48.628;8.924;2024-02-15T03:22:50;130.07;;;123.38;;
1140;SDS011;559;48.628;8.924;2024-02-15T03:25:17;127.53;;;121.03;;
1140;SDS011;559;48.628;8.924;2024-02-15T03:27:43;122.45;;;116.05;;
1140;SDS011;559;48.628;8.924;2024-02-15T03:30:10;120.13;;;113.80;;
1140;SDS011;559;48.628;8.924;2024-02-15T03:32:37;117.82;;;111.53;;
1140;SDS011;559;48.628;8.924;2024-02-15T03:35:07;114.55;;;108.45;;
1140;SDS011;559;48.628;8.924;2024-02-15T03:37:34;112.28;;;106.28;;
1140;SDS011;559;48.628;8.924;2024-02-15T03:40:02;116.20;;;110.00;;
1140;SDS011;559;48.628;8.924;2024-02-15T03:42:30;114.80;;;108.57;;
1140;SDS011;559;48.628;8.924;2024-02-15T03:44:56;110.70;;;104.70;;
1140;SDS011;559;48.628;8.924;2024-02-15T03:47:23;111.35;;;105.35;;
1140;SDS011;559;48.628;8.924;2024-02-15T03:49:49;110.82;;;104.95;;
1140;SDS011;559;48.628;8.924;2024-02-15T03:52:17;111.47;;;105.55;;
1140;SDS011;559;48.628;8.924;2024-02-15T03:54:44;109.25;;;103.28;;
1140;SDS011;559;48.628;8.924;2024-02-15T03:57:11;107.78;;;101.88;;
1140;SDS011;559;48.628;8.924;2024-02-15T03:59:37;104.65;;;98.80;;
1140;SDS011;559;48.628;8.924;2024-02-15T04:02:05;108.95;;;102.90;;
1140;SDS011;559;48.628;8.924;2024-02-15T04:04:36;103.57;;;97.93;;
1140;SDS011;559;48.628;8.924;2024-02-15T04:07:06;105.10;;;99.20;;
1140;SDS011;559;48.628;8.924;2024-02-15T04:09:34;102.20;;;96.50;;
1140;SDS011;559;48.628;8.924;2024-02-15T04:12:01;100.53;;;94.72;;
1140;SDS011;559;48.628;8.924;2024-02-15T04:14:28;102.60;;;96.90;;
1140;SDS011;559;48.628;8.924;2024-02-15T04:16:54;100.25;;;94.55;;
1140;SDS011;559;48.628;8.924;2024-02-15T04:19:22;102.13;;;96.18;;
1140;SDS011;559;48.628;8.924;2024-02-15T04:21:49;101.57;;;95.95;;
1140;SDS011;559;48.628;8.924;2024-02-15T04:24:16;105.35;;;99.45;;
1140;SDS011;559;48.628;8.924;2024-02-15T04:26:43;100.97;;;95.30;;
1140;SDS011;559;48.628;8.924;2024-02-15T04:29:12;106.40;;;100.68;;
1140;SDS011;559;48.628;8.924;2024-02-15T04:31:39;113.38;;;107.45;;
1140;SDS011;559;48.628;8.924;2024-02-15T04:34:07;106.40;;;100.57;;
1140;SDS011;559;48.628;8.924;2024-02-15T04:36:35;99.05;;;93.35;;
1140;SDS011;559;48.628;8.924;2024-02-15T04:39:02;95.88;;;90.28;;
1140;SDS011;559;48.628;8.924;2024-02-15T04:41:29;97.00;;;91.22;;
1140;SDS011;559;48.628;8.924;2024-02-15T04:43:57;100.05;;;94.25;;
1140;SDS011;559;48.628;8.924;2024-02-15T04:46:23;99.90;;;94.10;;
1140;SDS011;559;48.628;8.924;2024-02-15T04:48:50;97.45;;;91.95;;
1140;SDS011;559;48.628;8.924;2024-02-15T04:51:17;96.55;;;91.05;;
1140;SDS011;559;48.628;8.924;2024-02-15T04:53:44;99.47;;;93.72;;
1140;SDS011;559;48.628;8.924;2024-02-15T04:56:12;98.15;;;92.45;;
1140;SDS011;559;48.628;8.924;2024-02-15T04:58:39;97.15;;;91.45;;
1140;SDS011;559;48.628;8.924;2024-02-15T05:01:13;97.93;;;92.43;;
1140;SDS011;559;48.628;8.924;2024-02-15T05:03:40;95.72;;;90.30;;
1140;SDS011;559;48.628;8.924;2024-02-15T05:06:06;97.28;;;91.68;;
1140;SDS011;559;48.628;8.924;2024-02-15T05:08:34;96.25;;;90.80;;
1140;SDS011;559;48.628;8.924;2024-02-15T05:11:01;97.30;;;91.88;;
1140;SDS011;559;48.628;8.924;2024-02-15T05:13:30;93.07;;;87.78;;
1140;SDS011;559;48.628;8.924;2024-02-15T05:15:56;98.30;;;92.88;;
1140;SDS011;559;48.628;8.924;2024-02-15T05:18:24;92.85;;;87.57;;
1140;SDS011;559;48.628;8.924;2024-02-15T05:20:51;98.22;;;92.82;;
1140;SDS011;559;48.628;8.924;2024-02-15T05:23:17;97.47;;;92.13;;
1140;SDS011;559;48.628;8.924;2024-02-15T05:25:44;99.18;;;93.63;;
1140;SDS011;559;48.628;8.924;2024-02-15T05:28:10;100.55;;;95.15;;
1140;SDS011;559;48.628;8.924;2024-02-15T05:30:37;97.38;;;92.18;;
1140;SDS011;559;48.628;8.924;2024-02-15T05:33:04;98.20;;;92.30;;
1140;SDS011;559;48.628;8.924;2024-02-15T05:35:34;97.95;;;92.63;;
1140;SDS011;559;48.628;8.924;2024-02-15T05:38:06;100.05;;;94.57;;
1140;SDS011;559;48.628;8.924;2024-02-15T05:40:32;92.65;;;87.00;;
1140;SDS011;559;48.628;8.924;2024-02-15T05:42:59;92.70;;;87.28;;
1140;SDS011;559;48.628;8.924;2024-02-15T05:45:30;95.18;;;89.68;;
1140;SDS011;559;48.628;8.924;2024-02-15T05:48:03;98.75;;;93.07;;
1140;SDS011;559;48.628;8.924;2024-02-15T05:50:33;97.45;;;91.85;;
1140;SDS011;559;48.628;8.924;2024-02-15T05:53:00;102.18;;;96.50;;
1140;SDS011;559;48.628;8.924;2024-02-15T05:55:26;102.30;;;96.47;;
1140;SDS011;559;48.628;8.924;2024-02-15T05:57:56;96.13;;;90.55;;
1140;SDS011;559;48.628;8.924;2024-02-15T06:00:22;97.28;;;91.78;;
1140;SDS011;559;48.628;8.924;2024-02-15T06:02:49;101.65;;;96.05;;
1140;SDS011;559;48.628;8.924;2024-02-15T06:05:16;105.32;;;99.22;;
1140;SDS011;559;48.628;8.924;2024-02-15T06:07:44;99.45;;;93.65;;
1140;SDS011;559;48.628;8.924;2024-02-15T06:10:11;98.53;;;92.50;;
1140;SDS011;559;48.628;8.924;2024-02-15T06:12:39;99.93;;;94.15;;
1140;SDS011;559;48.628;8.924;2024-02-15T06:15:06;96.18;;;90.53;;
1140;SDS011;559;48.628;8.924;2024-02-15T06:17:39;95.88;;;90.10;;
1140;SDS011;559;48.628;8.924;2024-02-15T06:20:07;96.45;;;90.50;;
1140;SDS011;559;48.628;8.924;2024-02-15T06:22:34;94.00;;;88.20;;
1140;SDS011;559;48.628;8.924;2024-02-15T06:25:02;96.95;;;91.05;;
1140;SDS011;559;48.628;8.924;2024-02-15T06:27:30;101.93;;;96.03;;
1140;SDS011;559;48.628;8.924;2024-02-15T06:29:57;100.68;;;94.78;;
1140;SDS011;559;48.628;8.924;2024-02-15T06:32:41;109.05;;;102.93;;
1140;SDS011;559;48.628;8.924;2024-02-15T06:35:25;106.10;;;99.90;;
1140;SDS011;559;48.628;8.924;2024-02-15T06:38:09;102.90;;;97.10;;
1140;SDS011;559;48.628;8.924;2024-02-15T06:40:55;99.78;;;93.82;;
1140;SDS011;559;48.628;8.924;2024-02-15T06:43:21;101.18;;;95.00;;
1140;SDS011;559;48.628;8.924;2024-02-15T06:45:48;100.07;;;94.18;;
1140;SDS011;559;48.628;8.924;2024-02-15T06:48:16;95.90;;;90.28;;
1140;SDS011;559;48.628;8.924;2024-02-15T06:50:42;94.00;;;88.40;;
1140;SDS011;559;48.628;8.924;2024-02-15T06:53:09;99.32;;;93.72;;
1140;SDS011;559;48.628;8.924;2024-02-15T06:55:37;94.43;;;88.53;;
1140;SDS011;559;48.628;8.924;2024-02-15T06:58:06;93.22;;;87.60;;
1140;SDS011;559;48.628;8.924;2024-02-15T07:00:32;91.97;;;86.38;;
1140;SDS011;559;48.628;8.924;2024-02-15T07:02:59;94.18;;;88.40;;
1140;SDS011;559;48.628;8.924;2024-02-15T07:05:26;91.07;;;84.88;;
1140;SDS011;559;48.628;8.924;2024-02-15T07:07:53;99.93;;;93.80;;
1140;SDS011;559;48.628;8.924;2024-02-15T07:10:20;98.50;;;92.20;;
1140;SDS011;559;48.628;8.924;2024-02-15T07:12:47;95.05;;;88.85;;
1140;SDS011;559;48.628;8.924;2024-02-15T07:15:16;95.88;;;89.97;;
1140;SDS011;559;48.628;8.924;2024-02-15T07:17:42;96.60;;;89.90;;
1140;SDS011;559;48.628;8.924;2024-02-15T07:20:10;99.93;;;93.90;;
1140;SDS011;559;48.628;8.924;2024-02-15T07:22:42;104.28;;;97.95;;
1140;SDS011;559;48.628;8.924;2024-02-15T07:25:10;104.13;;;97.85;;
1140;SDS011;559;48.628;8.924;2024-02-15T07:27:36;105.43;;;99.35;;
1140;SDS011;559;48.628;8.924;2024-02-15T07:30:04;100.50;;;94.50;;
1140;SDS011;559;48.628;8.924;2024-02-15T07:32:35;100.90;;;94.40;;
1140;SDS011;559;48.628;8.924;2024-02-15T07:35:02;98.47;;;92.45;;
1140;SDS011;559;48.628;8.924;2024-02-15T07:37:30;97.93;;;91.55;;
1140;SDS011;559;48.628;8.924;2024-02-15T07:39:57;89.20;;;83.53;;
1140;SDS011;559;48.628;8.924;2024-02-15T07:42:24;88.05;;;82.55;;
1140;SDS011;559;48.628;8.924;2024-02-15T07:44:51;85.60;;;80.25;;
1140;SDS011;559;48.628;8.924;2024-02-15T07:47:17;87.18;;;81.88;;
1140;SDS011;559;48.628;8.924;2024-02-15T07:49:47;86.05;;;80.47;;
1140;SDS011;559;48.628;8.924;2024-02-15T07:52:14;83.75;;;78.70;;
1140;SDS011;559;48.628;8.924;2024-02-15T07:54:41;83.53;;;78.40;;
1140;SDS011;559;48.628;8.924;2024-02-15T07:57:07;80.78;;;75.68;;
1140;SDS011;559;48.628;8.924;2024-02-15T07:59:34;84.55;;;79.47;;
1140;SDS011;559;48.628;8.924;2024-02-15T08:02:01;85.00;;;80.10;;
1140;SDS011;559;48.628;8.924;2024-02-15T08:04:27;80.35;;;75.32;;
1140;SDS011;559;48.628;8.924;2024-02-15T08:06:55;78.30;;;73.40;;
1140;SDS011;559;48.628;8.924;2024-02-15T08:09:22;78.38;;;73.57;;
1140;SDS011;559;48.628;8.924;2024-02-15T08:11:49;77.13;;;72.32;;
1140;SDS011;559;48.628;8.924;2024-02-15T08:14:15;77.13;;;72.32;;
1140;SDS011;559;48.628;8.924;2024-02-15T08:16:42;73.15;;;68.55;;
1140;SDS011;559;48.628;8.924;2024-02-15T08:19:08;75.80;;;71.20;;
1140;SDS011;559;48.628;8.924;2024-02-15T08:21:36;72.07;;;67.72;;
1140;SDS011;559;48.628;8.924;2024-02-15T08:24:07;79.45;;;74.22;;
1140;SDS011;559;48.628;8.924;2024-02-15T08:26:35;83.93;;;78.80;;
1140;SDS011;559;48.628;8.924;2024-02-15T08:29:03;87.20;;;81.88;;
1140;SDS011;559;48.628;8.924;2024-02-15T08:31:31;94.90;;;89.20;;
1140;SDS011;559;48.628;8.924;2024-02-15T08:33:58;88.70;;;83.03;;
1140;SDS011;559;48.628;8.924;2024-02-15T08:36:25;89.40;;;83.65;;
1140;SDS011;559;48.628;8.924;2024-02-15T08:38:52;91.50;;;85.50;;
1140;SDS011;559;48.628;8.924;2024-02-15T08:41:20;88.15;;;82.75;;
1140;SDS011;559;48.628;8.924;2024-02-15T08:43:48;90.82;;;85.13;;
1140;SDS011;559;48.628;8.924;2024-02-15T08:46:15;89.72;;;84.32;;
1140;SDS011;559;48.628;8.924;2024-02-15T08:48:41;80.85;;;76.05;;
1140;SDS011;559;48.628;8.924;2024-02-15T08:51:08;77.15;;;72.40;;
1140;SDS011;559;48.628;8.924;2024-02-15T08:53:35;71.38;;;66.88;;
1140;SDS011;559;48.628;8.924;2024-02-15T08:56:02;71.78;;;67.38;;
1140;SDS011;559;48.628;8.924;2024-02-15T08:58:30;69.50;;;65.10;;
1140;SDS011;559;48.628;8.924;2024-02-15T09:00:57;67.57;;;63.42;;
1140;SDS011;559;48.628;8.924;2024-02-15T09:03:23;68.95;;;64.78;;
1140;SDS011;559;48.628;8.924;2024-02-15T09:05:50;68.22;;;63.40;;
1140;SDS011;559;48.628;8.924;2024-02-15T09:08:17;66.57;;;62.53;;
1140;SDS011;559;48.628;8.924;2024-02-15T09:10:45;64.15;;;60.20;;
1140;SDS011;559;48.628;8.924;2024-02-15T09:13:12;63.08;;;59.25;;
1140;SDS011;559;48.628;8.924;2024-02-15T09:15:40;56.67;;;53.38;;
1140;SDS011;559;48.628;8.924;2024-02-15T09:18:07;52.70;;;49.70;;
1140;SDS011;559;48.628;8.924;2024-02-15T09:20:34;50.33;;;47.53;;
1140;SDS011;559;48.628;8.924;2024-02-15T09:23:03;50.95;;;48.22;;
1140;SDS011;559;48.628;8.924;2024-02-15T09:25:34;48.70;;;46.20;;
1140;SDS011;559;48.628;8.924;2024-02-15T09:28:03;48.00;;;45.50;;
1140;SDS011;559;48.628;8.924;2024-02-15T09:30:30;48.08;;;45.28;;
1140;SDS011;559;48.628;8.924;2024-02-15T09:32:59;47.30;;;44.90;;
1140;SDS011;559;48.628;8.924;2024-02-15T09:35:28;45.72;;;43.33;;
1140;SDS011;559;48.628;8.924;2024-02-15T09:37:55;45.70;;;43.60;;
1140;SDS011;559;48.628;8.924;2024-02-15T09:40:21;47.20;;;44.80;;
1140;SDS011;559;48.628;8.924;2024-02-15T09:42:51;45.58;;;43.40;;
1140;SDS011;559;48.628;8.924;2024-02-15T09:45:18;47.30;;;44.80;;
1140;SDS011;559;48.628;8.924;2024-02-15T09:47:46;47.65;;;45.42;;
1140;SDS011;559;48.628;8.924;2024-02-15T09:50:15;46.70;;;44.00;;
1140;SDS011;559;48.628;8.924;2024-02-15T09:52:43;46.58;;;44.28;;
1140;SDS011;559;48.628;8.924;2024-02-15T09:55:09;45.10;;;43.10;;
1140;SDS011;559;48.628;8.924;2024-02-15T09:57:38;43.65;;;41.75;;
1140;SDS011;559;48.628;8.924;2024-02-15T10:00:05;44.67;;;42.88;;
1140;SDS011;559;48.628;8.924;2024-02-15T10:02:33;41.83;;;40.22;;
1140;SDS011;559;48.628;8.924;2024-02-15T10:05:01;40.97;;;39.38;;
1140;SDS011;559;48.628;8.924;2024-02-15T10:07:29;40.10;;;38.58;;
1140;SDS011;559;48.628;8.924;2024-02-15T10:09:56;40.60;;;39.20;;
1140;SDS011;559;48.628;8.924;2024-02-15T10:12:22;39.67;;;38.43;;
1140;SDS011;559;48.628;8.924;2024-02-15T10:15:03;39.53;;;38.20;;
1140;SDS011;559;48.628;8.924;2024-02-15T10:17:32;38.87;;;37.57;;
1140;SDS011;559;48.628;8.924;2024-02-15T10:20:03;40.53;;;39.20;;
1140;SDS011;559;48.628;8.924;2024-02-15T10:22:32;38.90;;;37.60;;
1140;SDS011;559;48.628;8.924;2024-02-15T10:25:10;33.00;;;31.90;;
1140;SDS011;559;48.628;8.924;2024-02-15T10:27:37;40.60;;;39.30;;
1140;SDS011;559;48.628;8.924;2024-02-15T10:30:13;45.50;;;43.90;;
1140;SDS011;559;48.628;8.924;2024-02-15T10:32:41;50.53;;;48.73;;
1140;SDS011;559;48.628;8.924;2024-02-15T10:35:07;49.40;;;47.90;;
1140;SDS011;559;48.628;8.924;2024-02-15T10:37:35;49.40;;;47.90;;
1140;SDS011;559;48.628;8.924;2024-02-15T10:40:05;51.93;;;50.43;;
1140;SDS011;559;48.628;8.924;2024-02-15T10:42:32;50.90;;;49.30;;
1140;SDS011;559;48.628;8.924;2024-02-15T10:45:00;41.57;;;40.40;;
1140;SDS011;559;48.628;8.924;2024-02-15T10:47:29;45.10;;;43.70;;
1140;SDS011;559;48.628;8.924;2024-02-15T10:49:57;47.57;;;46.13;;
1140;SDS011;559;48.628;8.924;2024-02-15T10:52:24;46.33;;;45.00;;
1140;SDS011;559;48.628;8.924;2024-02-15T10:55:01;55.50;;;53.77;;
1140;SDS011;559;48.628;8.924;2024-02-15T10:57:30;49.70;;;48.30;;
1140;SDS011;559;48.628;8.924;2024-02-15T10:59:58;44.67;;;43.27;;
1140;SDS011;559;48.628;8.924;2024-02-15T11:02:26;53.10;;;51.33;;
1140;SDS011;559;48.628;8.924;2024-02-15T11:04:55;46.20;;;44.90;;
1140;SDS011;559;48.628;8.924;2024-02-15T11:07:28;46.87;;;45.23;;
1140;SDS011;559;48.628;8.924;2024-02-15T11:09:55;45.50;;;43.80;;
1140;SDS011;559;48.628;8.924;2024-02-15T11:12:23;46.83;;;45.10;;
1140;SDS011;559;48.628;8.924;2024-02-15T11:14:50;47.97;;;46.43;;
1140;SDS011;559;48.628;8.924;2024-02-15T11:23:24;43.37;;;42.17;;
1140;SDS011;559;48.628;8.924;2024-02-15T11:25:52;44.87;;;43.67;;
1140;SDS011;559;48.628;8.924;2024-02-15T11:28:37;45.43;;;44.20;;
1140;SDS011;559;48.628;8.924;2024-02-15T11:31:08;41.70;;;40.50;;
1140;SDS011;559;48.628;8.924;2024-02-15T11:33:37;39.00;;;37.80;;
1140;SDS011;559;48.628;8.924;2024-02-15T11:36:04;35.80;;;34.80;;
1140;SDS011;559;48.628;8.924;2024-02-15T11:38:31;36.00;;;35.00;;
1140;SDS011;559;48.628;8.924;2024-02-15T11:41:01;39.13;;;37.93;;
1140;SDS011;559;48.628;8.924;2024-02-15T11:46:23;34.20;;;33.03;;
1140;SDS011;559;48.628;8.924;2024-02-15T11:48:55;21.10;;;20.53;;
1140;SDS011;559;48.628;8.924;2024-02-15T11:51:27;14.40;;;14.00;;
1140;SDS011;559;48.628;8.924;2024-02-15T11:53:58;13.07;;;12.73;;
1140;SDS011;559;48.628;8.924;2024-02-15T11:56:55;14.10;;;13.70;;
1140;SDS011;559;48.628;8.924;2024-02-15T11:59:42;13.33;;;13.03;;
1140;SDS011;559;48.628;8.924;2024-02-15T12:02:18;12.53;;;12.20;;
1140;SDS011;559;48.628;8.924;2024-02-15T12:05:03;11.00;;;10.70;;
1140;SDS011;559;48.628;8.924;2024-02-15T12:07:53;10.30;;;10.00;;
1140;SDS011;559;48.628;8.924;2024-02-15T12:10:37;10.43;;;10.13;;
1140;SDS011;559;48.628;8.924;2024-02-15T12:13:21;10.90;;;10.60;;
1140;SDS011;559;48.628;8.924;2024-02-15T12:16:06;12.10;;;11.50;;
1140;SDS011;559;48.628;8.924;2024-02-15T12:18:50;12.70;;;12.30;;
1140;SDS011;559;48.628;8.924;2024-02-15T12:21:19;12.73;;;12.33;;
1140;SDS011;559;48.628;8.924;2024-02-15T12:23:48;15.10;;;14.70;;
1140;SDS011;559;48.628;8.924;2024-02-15T12:26:18;12.50;;;12.00;;
1140;SDS011;559;48.628;8.924;2024-02-15T12:28:49;10.33;;;10.03;;
1140;SDS011;559;48.628;8.924;2024-02-15T12:31:17;10.90;;;10.60;;
1140;SDS011;559;48.628;8.924;2024-02-15T12:33:44;9.63;;;9.30;;
1140;SDS011;559;48.628;8.924;2024-02-15T12:36:11;8.67;;;8.37;;
1140;SDS011;559;48.628;8.924;2024-02-15T12:38:38;9.10;;;8.73;;
1140;SDS011;559;48.628;8.924;2024-02-15T12:41:16;8.97;;;8.57;;
1140;SDS011;559;48.628;8.924;2024-02-15T12:43:44;9.77;;;9.40;;
1140;SDS011;559;48.628;8.924;2024-02-15T12:46:11;11.27;;;10.53;;
1140;SDS011;559;48.628;8.924;2024-02-15T12:48:39;9.83;;;9.40;;
1140;SDS011;559;48.628;8.924;2024-02-15T12:51:12;11.60;;;11.20;;
1140;SDS011;559;48.628;8.924;2024-02-15T12:53:39;9.43;;;9.10;;
1140;SDS011;559;48.628;8.924;2024-02-15T12:56:06;11.80;;;11.40;;
1140;SDS011;559;48.628;8.924;2024-02-15T12:58:34;10.60;;;10.30;;
1140;SDS011;559;48.628;8.924;2024-02-15T13:01:01;10.63;;;9.93;;
1140;SDS011;559;48.628;8.924;2024-02-15T13:03:29;11.70;;;11.30;;
1140;SDS011;559;48.628;8.924;2024-02-15T13:05:57;11.77;;;11.23;;
1140;SDS011;559;48.628;8.924;2024-02-15T13:08:24;11.13;;;10.73;;
1140;SDS011;559;48.628;8.924;2024-02-15T13:10:50;10.50;;;10.20;;
1140;SDS011;559;48.628;8.924;2024-02-15T13:13:17;12.40;;;11.70;;
1140;SDS011;559;48.628;8.924;2024-02-15T13:15:45;11.30;;;10.50;;
1140;SDS011;559;48.628;8.924;2024-02-15T13:18:12;12.33;;;11.83;;
1140;SDS011;559;48.628;8.924;2024-02-15T13:20:39;11.83;;;11.43;;
1140;SDS011;559;48.628;8.924;2024-02-15T13:23:07;10.40;;;10.10;;
1140;SDS011;559;48.628;8.924;2024-02-15T13:25:34;13.00;;;12.60;;
1140;SDS011;559;48.628;8.924;2024-02-15T13:28:02;11.87;;;11.30;;
1140;SDS011;559;48.628;8.924;2024-02-15T13:30:29;11.50;;;11.20;;
1140;SDS011;559;48.628;8.924;2024-02-15T13:32:56;11.70;;;11.20;;
1140;SDS011;559;48.628;8.924;2024-02-15T13:35:23;12.10;;;11.40;;
1140;SDS011;559;48.628;8.924;2024-02-15T13:37:50;13.90;;;13.30;;
1140;SDS011;559;48.628;8.924;2024-02-15T13:40:20;15.27;;;14.87;;
1140;SDS011;559;48.628;8.924;2024-02-15T13:42:51;20.23;;;19.63;;
1140;SDS011;559;48.628;8.924;2024-02-15T13:45:19;22.77;;;21.97;;
1140;SDS011;559;48.628;8.924;2024-02-15T13:47:47;14.80;;;14.33;;
1140;SDS011;559;48.628;8.924;2024-02-15T13:50:14;11.23;;;10.73;;
1140;SDS011;559;48.628;8.924;2024-02-15T13:52:41;11.70;;;11.03;;
1140;SDS011;559;48.628;8.924;2024-02-15T13:55:09;11.17;;;10.60;;
1140;SDS011;559;48.628;8.924;2024-02-15T13:57:39;10.20;;;9.70;;
1140;SDS011;559;48.628;8.924;2024-02-15T14:00:06;10.50;;;10.10;;
1140;SDS011;559;48.628;8.924;2024-02-15T14:02:38;10.37;;;9.80;;
1140;SDS011;559;48.628;8.924;2024-02-15T14:05:05;10.70;;;10.10;;
1140;SDS011;559;48.628;8.924;2024-02-15T14:07:33;10.60;;;10.20;;
1140;SDS011;559;48.628;8.924;2024-02-15T14:10:00;8.80;;;8.40;;
1140;SDS011;559;48.628;8.924;2024-02-15T14:12:27;8.63;;;8.23;;
1140;SDS011;559;48.628;8.924;2024-02-15T14:14:55;9.27;;;8.77;;
1140;SDS011;559;48.628;8.924;2024-02-15T14:17:22;8.60;;;8.13;;
1140;SDS011;559;48.628;8.924;2024-02-15T14:19:48;6.90;;;6.70;;
1140;SDS011;559;48.628;8.924;2024-02-15T14:22:15;8.93;;;8.63;;
1140;SDS011;559;48.628;8.924;2024-02-15T14:24:41;8.10;;;7.77;;
1140;SDS011;559;48.628;8.924;2024-02-15T14:27:08;7.67;;;7.37;;
1140;SDS011;559;48.628;8.924;2024-02-15T14:29:35;6.83;;;6.43;;
1140;SDS011;559;48.628;8.924;2024-02-15T14:32:07;8.53;;;8.00;;
1140;SDS011;559;48.628;8.924;2024-02-15T14:34:56;7.43;;;6.77;;
1140;SDS011;559;48.628;8.924;2024-02-15T14:37:23;6.67;;;6.40;;
1140;SDS011;559;48.628;8.924;2024-02-15T14:39:50;6.77;;;6.47;;
1140;SDS011;559;48.628;8.924;2024-02-15T14:42:16;7.20;;;6.87;;
1140;SDS011;559;48.628;8.924;2024-02-15T14:44:43;7.53;;;7.23;;
1140;SDS011;559;48.628;8.924;2024-02-15T14:47:10;7.27;;;6.90;;
1140;SDS011;559;48.628;8.924;2024-02-15T14:49:37;6.80;;;6.50;;
1140;SDS011;559;48.628;8.924;2024-02-15T14:52:04;7.00;;;6.50;;
1140;SDS011;559;48.628;8.924;2024-02-15T14:54:31;6.83;;;6.53;;
1140;SDS011;559;48.628;8.924;2024-02-15T14:56:58;8.20;;;7.90;;
1140;SDS011;559;48.628;8.924;2024-02-15T14:59:24;7.10;;;6.90;;
1140;SDS011;559;48.628;8.924;2024-02-15T15:01:52;7.20;;;6.90;;
1140;SDS011;559;48.628;8.924;2024-02-15T15:04:20;6.90;;;6.70;;
1140;SDS011;559;48.628;8.924;2024-02-15T15:06:47;7.67;;;7.27;;
1140;SDS011;559;48.628;8.924;2024-02-15T15:09:37;10.30;;;9.90;;
1140;SDS011;559;48.628;8.924;2024-02-15T15:12:23;12.00;;;11.70;;
1140;SDS011;559;48.628;8.924;2024-02-15T15:15:07;15.53;;;15.07;;
1140;SDS011;559;48.628;8.924;2024-02-15T15:17:37;22.10;;;21.40;;